Time;durP1;ratioP1;P1;durP2;ratioP2;P2;SDS_P1;SDS_P2;PMS_P1;PMS_P2;Temp;Humidity;BMP_temperature;BMP_pressure;BME280_temperature;BME280_humidity;BME280_pressure;Samples;Min_cycle;Max_cycle;Signal;HPM_P1;HPM_P2
2022/09/17 00:01:31;;;;;;;0.00;0.00;;;13.20;99.90;;;;;;5002540;28;20482;-87
2022/09/17 00:04:03;;;;;;;0.00;0.00;;;13.30;99.90;;;;;;5002235;28;20459;-86
2022/09/17 00:06:35;;;;;;;0.00;0.00;;;13.30;99.90;;;;;;5001632;28;20514;-86
2022/09/17 00:09:05;;;;;;;0.00;0.00;;;13.20;99.90;;;;;;5002328;28;20419;-87
2022/09/17 00:11:36;;;;;;;0.00;0.00;;;13.20;99.90;;;;;;5010152;28;20510;-87
2022/09/17 00:14:06;;;;;;;0.00;0.00;;;13.10;99.90;;;;;;5014503;28;20438;-87
2022/09/17 00:16:37;;;;;;;0.00;0.00;;;13.00;99.90;;;;;;5013390;28;20474;-87
2022/09/17 00:19:06;;;;;;;0.00;0.00;;;13.00;99.90;;;;;;5013055;28;20535;-86
2022/09/17 00:21:36;;;;;;;0.00;0.00;;;12.90;99.90;;;;;;5013749;28;20459;-86
2022/09/17 00:24:06;;;;;;;0.00;0.00;;;12.90;99.90;;;;;;5013445;28;20517;-86
2022/09/17 00:26:35;;;;;;;0.00;0.00;;;13.00;99.90;;;;;;5012639;28;20447;-86
2022/09/17 00:29:04;;;;;;;0.00;0.00;;;13.10;99.90;;;;;;5003472;28;20431;-87
2022/09/17 00:31:34;;;;;;;0.00;0.00;;;13.10;99.90;;;;;;4999119;28;21044;-87
2022/09/17 00:34:03;;;;;;;0.00;0.00;;;13.10;99.90;;;;;;4999391;28;20463;-86
2022/09/17 00:36:33;;;;;;;0.00;0.00;;;13.20;99.90;;;;;;5001113;28;20482;-86
2022/09/17 00:39:04;;;;;;;0.00;0.00;;;13.20;99.90;;;;;;5014022;28;20449;-85
2022/09/17 00:41:34;;;;;;;0.00;0.00;;;13.20;99.90;;;;;;5015179;28;20482;-86
2022/09/17 00:44:43;;;;;;;0.00;0.00;;;13.10;99.90;;;;;;5012476;28;20462;-86
2022/09/17 00:47:28;;;;;;;0.00;0.00;;;13.00;99.90;;;;;;5016881;28;20436;-88
2022/09/17 00:50:01;;;;;;;0.00;0.00;;;12.90;99.90;;;;;;5014649;28;20821;-86
2022/09/17 00:52:32;;;;;;;0.00;0.00;;;12.80;99.90;;;;;;5015632;28;20454;-87
2022/09/17 00:55:10;;;;;;;0.00;0.00;;;12.70;99.90;;;;;;5018202;28;20415;-87
2022/09/17 00:57:39;;;;;;;0.00;0.00;;;12.70;99.90;;;;;;5017437;28;20441;-87
2022/09/17 01:00:09;;;;;;;0.00;0.00;;;12.60;99.90;;;;;;5018031;28;20471;-87
2022/09/17 01:02:37;;;;;;;0.00;0.00;;;12.60;99.90;;;;;;5017433;28;20482;-86
2022/09/17 01:05:06;;;;;;;0.00;0.00;;;12.60;99.90;;;;;;5017100;28;20462;-87
2022/09/17 01:07:57;;;;;;;0.00;0.00;;;12.60;99.90;;;;;;5016239;28;20454;-86
2022/09/17 01:11:05;;;;;;;0.00;0.00;;;12.60;99.90;;;;;;5015675;28;20474;-88
2022/09/17 01:13:43;;;;;;;0.00;0.00;;;12.60;99.90;;;;;;5016653;28;20474;-87
2022/09/17 01:16:18;;;;;;;0.00;0.00;;;12.60;99.90;;;;;;5012133;28;20478;-87
2022/09/17 01:18:59;;;;;;;0.00;0.00;;;12.50;99.90;;;;;;5010620;28;20453;-87
2022/09/17 01:21:46;;;;;;;0.00;0.00;;;12.50;99.90;;;;;;5015325;28;20566;-87
2022/09/17 01:24:44;;;;;;;0.00;0.00;;;12.40;99.90;;;;;;5016795;28;20418;-88
2022/09/17 01:27:58;;;;;;;0.00;0.00;;;12.40;99.90;;;;;;5015891;28;20465;-87
2022/09/17 01:30:52;;;;;;;0.00;0.00;;;12.30;99.90;;;;;;4974129;28;20521;-87
2022/09/17 01:33:29;;;;;;;0.00;0.00;;;12.30;99.90;;;;;;5005809;28;20446;-87
2022/09/17 01:36:06;;;;;;;0.00;0.00;;;12.30;99.90;;;;;;5005990;28;20470;-85
2022/09/17 01:38:43;;;;;;;0.00;0.00;;;12.40;99.90;;;;;;5011101;28;20509;-88
2022/09/17 01:41:17;;;;;;;0.00;0.00;;;12.40;99.90;;;;;;4999603;28;20969;-88
2022/09/17 01:43:52;;;;;;;0.00;0.00;;;12.40;99.90;;;;;;5001399;28;20438;-87
2022/09/17 01:46:27;;;;;;;0.00;0.00;;;12.40;99.90;;;;;;5000108;28;20453;-88
2022/09/17 01:49:00;;;;;;;0.00;0.00;;;12.50;99.90;;;;;;4999851;28;20411;-88
2022/09/17 01:51:34;;;;;;;0.00;0.00;;;12.50;99.90;;;;;;5000527;28;20455;-88
2022/09/17 01:54:07;;;;;;;0.00;0.00;;;12.50;99.90;;;;;;5000779;28;20439;-88
2022/09/17 01:56:39;;;;;;;0.00;0.00;;;12.60;99.90;;;;;;4999873;28;20525;-88
2022/09/17 01:59:12;;;;;;;0.00;0.00;;;12.70;99.90;;;;;;5002700;28;20882;-88
2022/09/17 02:01:44;;;;;;;0.00;0.00;;;12.80;99.90;;;;;;5011834;28;20487;-85
2022/09/17 02:04:17;;;;;;;0.00;0.00;;;12.80;99.90;;;;;;5010372;28;20940;-87
2022/09/17 02:06:51;;;;;;;0.00;0.00;;;12.80;99.90;;;;;;4999596;28;20435;-87
2022/09/17 02:09:24;;;;;;;0.00;0.00;;;12.80;99.90;;;;;;4999718;28;20532;-88
2022/09/17 02:11:57;;;;;;;0.00;0.00;;;12.80;99.90;;;;;;5000562;28;20459;-86
2022/09/17 02:14:29;;;;;;;0.00;0.00;;;12.80;99.90;;;;;;5000131;28;20487;-88
2022/09/17 02:19:41;;;;;;;0.00;0.00;;;12.70;99.90;;;;;;5431659;23;20552;-78
2022/09/17 02:22:19;;;;;;;0.00;0.00;;;12.60;99.90;;;;;;4997608;28;20962;-81
2022/09/17 02:24:58;;;;;;;0.00;0.00;;;12.70;99.90;;;;;;4999885;28;20435;-79
2022/09/17 02:27:37;;;;;;;0.00;0.00;;;12.70;99.90;;;;;;4999913;28;20497;-81
2022/09/17 02:30:06;;;;;;;0.00;0.00;;;12.70;99.90;;;;;;5000073;28;20465;-80
2022/09/17 02:32:34;;;;;;;0.00;0.00;;;12.70;99.90;;;;;;4999959;28;20450;-81
2022/09/17 02:35:03;;;;;;;0.00;0.00;;;12.80;99.90;;;;;;5000462;28;21005;-82
2022/09/17 02:37:31;;;;;;;0.00;0.00;;;12.80;99.90;;;;;;5000178;28;20483;-82
2022/09/17 02:39:59;;;;;;;0.00;0.00;;;12.80;99.90;;;;;;5000078;28;20474;-82
2022/09/17 02:42:33;;;;;;;0.00;0.00;;;12.80;99.90;;;;;;4998952;28;20451;-79
2022/09/17 02:45:11;;;;;;;0.00;0.00;;;12.80;99.90;;;;;;4998798;28;20485;-79
2022/09/17 02:48:04;;;;;;;0.00;0.00;;;12.80;99.90;;;;;;4998396;28;20853;-77
2022/09/17 02:50:50;;;;;;;0.00;0.00;;;12.80;99.90;;;;;;4998748;28;20471;-78
2022/09/17 02:53:31;;;;;;;0.00;0.00;;;12.80;99.90;;;;;;4998707;28;20447;-79
2022/09/17 02:56:07;;;;;;;0.00;0.00;;;12.80;99.90;;;;;;4998985;28;20438;-79
2022/09/17 02:58:43;;;;;;;0.00;0.00;;;12.70;99.90;;;;;;4999818;28;20489;-80
2022/09/17 03:01:30;;;;;;;0.00;0.00;;;12.60;99.90;;;;;;4999147;28;20449;-78
2022/09/17 03:04:01;;;;;;;0.00;0.00;;;12.50;99.90;;;;;;5004221;28;20511;-78
2022/09/17 03:06:31;;;;;;;0.00;0.00;;;12.60;99.90;;;;;;5010872;28;20434;-78
2022/09/17 03:08:58;;;;;;;0.00;0.00;;;12.60;99.90;;;;;;4999252;28;20518;-77
2022/09/17 03:11:26;;;;;;;0.00;0.00;;;12.60;99.90;;;;;;4997535;28;20438;-77
2022/09/17 03:13:54;;;;;;;0.00;0.00;;;12.60;99.90;;;;;;4997305;28;20893;-78
2022/09/17 03:16:22;;;;;;;0.00;0.00;;;12.60;99.90;;;;;;4999359;28;20501;-78
2022/09/17 03:18:50;;;;;;;0.00;0.00;;;12.50;99.90;;;;;;4999113;28;20777;-79
2022/09/17 03:21:18;;;;;;;0.00;0.00;;;12.50;99.90;;;;;;4998843;28;20490;-80
2022/09/17 03:23:47;;;;;;;0.00;0.00;;;12.50;99.90;;;;;;4998457;28;20458;-82
2022/09/17 03:26:15;;;;;;;0.00;0.00;;;12.50;99.90;;;;;;5009515;28;20447;-84
2022/09/17 03:28:43;;;;;;;0.00;0.00;;;12.50;99.90;;;;;;5005242;28;20781;-85
2022/09/17 03:31:11;;;;;;;0.00;0.00;;;12.50;99.90;;;;;;5002264;28;20432;-81
2022/09/17 03:33:39;;;;;;;0.00;0.00;;;12.50;99.90;;;;;;5002138;28;20438;-79
2022/09/17 03:36:06;;;;;;;0.00;0.00;;;12.60;99.90;;;;;;4997116;28;20439;-78
2022/09/17 03:38:34;;;;;;;0.00;0.00;;;12.60;99.90;;;;;;4996268;28;20482;-78
2022/09/17 03:41:06;;;;;;;0.00;0.00;;;12.70;99.90;;;;;;4995726;28;21048;-78
2022/09/17 03:43:34;;;;;;;0.00;0.00;;;12.70;99.90;;;;;;4996447;28;20431;-78
2022/09/17 03:46:02;;;;;;;0.00;0.00;;;12.70;99.90;;;;;;4996323;28;20470;-77
2022/09/17 03:48:31;;;;;;;0.00;0.00;;;12.80;99.90;;;;;;4996022;28;20449;-78
2022/09/17 03:50:58;;;;;;;0.00;0.00;;;12.70;99.90;;;;;;4995391;28;20513;-78
2022/09/17 03:53:26;;;;;;;0.00;0.00;;;12.70;99.90;;;;;;4986686;28;20447;-78
2022/09/17 03:55:58;;;;;;;0.00;0.00;;;12.70;99.90;;;;;;4985862;28;20436;-78
2022/09/17 03:58:27;;;;;;;0.00;0.00;;;12.60;99.90;;;;;;4985750;28;20529;-78
2022/09/17 04:00:56;;;;;;;0.00;0.00;;;12.60;99.90;;;;;;4987927;28;20483;-78
2022/09/17 04:03:25;;;;;;;0.00;0.00;;;12.50;99.90;;;;;;4984773;28;20475;-78
2022/09/17 04:05:53;;;;;;;0.00;0.00;;;12.50;99.90;;;;;;4984442;28;20428;-79
2022/09/17 04:08:21;;;;;;;0.00;0.00;;;12.50;99.90;;;;;;4986702;28;20435;-78
2022/09/17 04:10:50;;;;;;;0.00;0.00;;;12.50;99.90;;;;;;4986031;28;20511;-78
2022/09/17 04:13:18;;;;;;;0.00;0.00;;;12.50;99.90;;;;;;4985473;28;20499;-78
2022/09/17 04:15:48;;;;;;;0.00;0.00;;;12.40;99.90;;;;;;4987013;28;20499;-77
2022/09/17 04:18:16;;;;;;;0.00;0.00;;;12.40;99.90;;;;;;4984522;28;20476;-78
2022/09/17 04:20:44;;;;;;;0.00;0.00;;;12.50;99.90;;;;;;4985417;28;20486;-78
2022/09/17 04:23:12;;;;;;;0.00;0.00;;;12.50;99.90;;;;;;4986025;28;20435;-79
2022/09/17 04:25:40;;;;;;;0.00;0.00;;;12.40;99.90;;;;;;4982372;28;20475;-78
2022/09/17 04:28:08;;;;;;;0.00;0.00;;;12.40;99.90;;;;;;4987262;28;20503;-77
2022/09/17 04:30:36;;;;;;;0.00;0.00;;;12.40;99.90;;;;;;4984280;28;20474;-78
2022/09/17 04:33:05;;;;;;;0.00;0.00;;;12.40;99.90;;;;;;4985039;28;20494;-78
2022/09/17 04:35:33;;;;;;;0.00;0.00;;;12.40;99.90;;;;;;4984197;28;20443;-76
2022/09/17 04:38:01;;;;;;;0.00;0.00;;;12.40;99.90;;;;;;4985800;28;20843;-78
2022/09/17 04:40:29;;;;;;;0.00;0.00;;;12.40;99.90;;;;;;4986741;28;20853;-79
2022/09/17 04:43:01;;;;;;;0.00;0.00;;;12.50;99.90;;;;;;4984445;28;20475;-79
2022/09/17 04:45:32;;;;;;;0.00;0.00;;;12.50;99.90;;;;;;4984647;28;20439;-78
2022/09/17 04:48:00;;;;;;;0.00;0.00;;;12.50;99.90;;;;;;4984633;28;20456;-78
2022/09/17 04:50:29;;;;;;;0.00;0.00;;;12.40;99.90;;;;;;4985082;28;20479;-78
2022/09/17 04:52:57;;;;;;;0.00;0.00;;;12.40;99.90;;;;;;4992925;28;20494;-80
2022/09/17 04:55:26;;;;;;;0.00;0.00;;;12.30;99.90;;;;;;4988740;28;20455;-78
2022/09/17 04:57:54;;;;;;;0.00;0.00;;;12.20;99.90;;;;;;4975384;28;20843;-77
2022/09/17 05:00:23;;;;;;;0.00;0.00;;;12.20;99.90;;;;;;4973615;28;20471;-77
2022/09/17 05:02:52;;;;;;;0.00;0.00;;;12.20;99.90;;;;;;4990143;28;20451;-78
2022/09/17 05:05:21;;;;;;;0.00;0.00;;;12.20;99.90;;;;;;4993469;28;20855;-78
2022/09/17 05:07:50;;;;;;;0.00;0.00;;;12.10;99.90;;;;;;4994415;28;20447;-78
2022/09/17 05:10:19;;;;;;;0.00;0.00;;;12.10;99.90;;;;;;4994004;28;20939;-78
2022/09/17 05:12:48;;;;;;;0.00;0.00;;;12.10;99.90;;;;;;4987053;28;20498;-78
2022/09/17 05:15:16;;;;;;;0.00;0.00;;;12.10;99.90;;;;;;4978178;28;20459;-78
2022/09/17 05:17:44;;;;;;;0.00;0.00;;;12.00;99.90;;;;;;4982136;28;20478;-78
2022/09/17 05:20:13;;;;;;;0.00;0.00;;;11.90;99.90;;;;;;4995944;28;20470;-78
2022/09/17 05:22:42;;;;;;;0.00;0.00;;;12.00;99.90;;;;;;4987915;28;20965;-77
2022/09/17 05:25:22;;;;;;;0.00;0.00;;;12.00;99.90;;;;;;4975016;28;21095;-77
2022/09/17 05:27:51;;;;;;;0.00;0.00;;;12.00;99.90;;;;;;4987757;28;20450;-77
2022/09/17 05:30:20;;;;;;;0.00;0.00;;;12.00;99.90;;;;;;4988241;28;20479;-77
2022/09/17 05:32:48;;;;;;;0.00;0.00;;;12.00;99.90;;;;;;4994216;28;20443;-77
2022/09/17 05:35:16;;;;;;;0.00;0.00;;;12.00;99.90;;;;;;4993974;28;20447;-79
2022/09/17 05:37:44;;;;;;;0.00;0.00;;;12.20;99.90;;;;;;4981323;28;20487;-79
2022/09/17 05:40:13;;;;;;;0.00;0.00;;;12.10;99.90;;;;;;4996824;28;20985;-79
2022/09/17 05:42:40;;;;;;;0.00;0.00;;;12.10;99.90;;;;;;4980364;28;20447;-78
2022/09/17 05:45:09;;;;;;;0.00;0.00;;;12.00;99.90;;;;;;4990774;28;20452;-79
2022/09/17 05:47:36;;;;;;;0.00;0.00;;;12.10;99.90;;;;;;4988676;28;20842;-79
2022/09/17 05:50:05;;;;;;;0.00;0.00;;;12.10;99.90;;;;;;4979268;28;20472;-79
2022/09/17 05:52:33;;;;;;;0.00;0.00;;;12.20;99.90;;;;;;4978675;28;20506;-79
2022/09/17 05:55:00;;;;;;;0.00;0.00;;;12.20;99.90;;;;;;4991230;28;20506;-79
2022/09/17 05:57:30;;;;;;;0.00;0.00;;;12.20;99.90;;;;;;4992170;28;20456;-77
2022/09/17 05:59:58;;;;;;;0.00;0.00;;;12.20;99.90;;;;;;4990186;28;20486;-77
2022/09/17 06:02:26;;;;;;;0.00;0.00;;;12.20;99.90;;;;;;4985228;28;20490;-80
2022/09/17 06:04:54;;;;;;;0.00;0.00;;;12.10;99.90;;;;;;4994433;28;20474;-79
2022/09/17 06:07:21;;;;;;;0.00;0.00;;;12.10;99.90;;;;;;5000281;28;20453;-79
2022/09/17 06:09:49;;;;;;;0.00;0.00;;;12.10;99.90;;;;;;5000747;28;20467;-79
2022/09/17 06:12:17;;;;;;;0.00;0.00;;;12.20;99.90;;;;;;4999842;28;20447;-79
2022/09/17 06:14:46;;;;;;;0.00;0.00;;;12.20;99.90;;;;;;4980208;28;20603;-79
2022/09/17 06:17:14;;;;;;;0.00;0.00;;;12.20;99.90;;;;;;4983799;28;20455;-79
2022/09/17 06:19:48;;;;;;;0.00;0.00;;;12.20;99.90;;;;;;4980738;28;21017;-79
2022/09/17 06:22:18;;;;;;;0.00;0.00;;;12.20;99.90;;;;;;4981171;28;20467;-78
2022/09/17 06:24:45;;;;;;;0.00;0.00;;;12.20;99.90;;;;;;4999660;28;20536;-78
2022/09/17 06:27:13;;;;;;;0.00;0.00;;;12.10;99.90;;;;;;4999371;28;20450;-79
2022/09/17 06:29:41;;;;;;;0.00;0.00;;;12.10;99.90;;;;;;4998633;28;20562;-78
2022/09/17 06:32:11;;;;;;;0.00;0.00;;;12.10;99.90;;;;;;4999667;28;20454;-78
2022/09/17 06:34:40;;;;;;;0.00;0.00;;;12.00;99.90;;;;;;4999252;28;20446;-78
2022/09/17 06:37:08;;;;;;;0.00;0.00;;;12.00;99.90;;;;;;4999739;28;20467;-78
2022/09/17 06:39:35;;;;;;;0.00;0.00;;;11.90;99.90;;;;;;5002288;28;20485;-78
2022/09/17 06:42:03;;;;;;;0.00;0.00;;;11.90;99.90;;;;;;4998869;28;20500;-78
2022/09/17 06:44:31;;;;;;;0.00;0.00;;;11.90;99.90;;;;;;4998909;28;20774;-78
2022/09/17 06:46:59;;;;;;;0.00;0.00;;;11.80;99.90;;;;;;4999218;28;20455;-78
2022/09/17 06:49:30;;;;;;;0.00;0.00;;;11.70;99.90;;;;;;4998798;28;20458;-79
2022/09/17 06:51:57;;;;;;;0.00;0.00;;;11.70;99.90;;;;;;4998745;28;21161;-78
2022/09/17 06:54:25;;;;;;;0.00;0.00;;;11.70;99.90;;;;;;4999133;28;20820;-79
2022/09/17 06:56:53;;;;;;;0.00;0.00;;;11.70;99.90;;;;;;4998796;28;20489;-80
2022/09/17 06:59:21;;;;;;;0.00;0.00;;;11.70;99.90;;;;;;4998858;28;20486;-79
2022/09/17 07:01:49;;;;;;;0.00;0.00;;;11.70;99.90;;;;;;4991519;28;20482;-78
2022/09/17 07:04:17;;;;;;;0.00;0.00;;;11.70;99.90;;;;;;4997476;28;20455;-79
2022/09/17 07:06:46;;;;;;;0.00;0.00;;;11.80;99.90;;;;;;4988836;28;20467;-79
2022/09/17 07:09:14;;;;;;;0.00;0.00;;;11.90;99.90;;;;;;5000979;28;20474;-77
2022/09/17 07:11:43;;;;;;;0.00;0.00;;;12.10;99.90;;;;;;4991488;28;20946;-78
2022/09/17 07:14:21;;;;;;;0.00;0.00;;;12.10;99.90;;;;;;4997077;28;20435;-78
2022/09/17 07:16:52;;;;;;;0.00;0.00;;;12.20;99.90;;;;;;4996849;28;20451;-78
2022/09/17 07:19:24;;;;;;;0.00;0.00;;;12.20;99.90;;;;;;4987585;28;20989;-76
2022/09/17 07:21:55;;;;;;;0.00;0.00;;;12.10;99.90;;;;;;4984840;28;20483;-77
2022/09/17 07:24:23;;;;;;;0.00;0.00;;;12.20;99.90;;;;;;4995480;28;20843;-79
2022/09/17 07:26:50;;;;;;;0.00;0.00;;;12.30;99.90;;;;;;4995280;28;20439;-77
2022/09/17 07:29:19;;;;;;;0.00;0.00;;;12.40;99.90;;;;;;4992553;28;20506;-83
2022/09/17 07:31:47;;;;;;;0.00;0.00;;;12.60;99.90;;;;;;4985667;28;20448;-82
2022/09/17 07:34:15;;;;;;;0.00;0.00;;;12.80;99.90;;;;;;4989202;28;20459;-81
2022/09/17 07:36:43;;;;;;;0.00;0.00;;;13.00;99.90;;;;;;4995207;28;20440;-80
2022/09/17 07:39:12;;;;;;;0.00;0.00;;;13.10;99.90;;;;;;4994654;28;20491;-79
2022/09/17 07:41:40;;;;;;;0.00;0.00;;;13.30;99.90;;;;;;4985348;28;20459;-75
2022/09/17 07:44:08;;;;;;;0.00;0.00;;;13.40;99.90;;;;;;4990526;28;20966;-79
2022/09/17 07:46:36;;;;;;;0.00;0.00;;;13.50;99.90;;;;;;4996484;28;20476;-80
2022/09/17 07:49:04;;;;;;;0.00;0.00;;;13.50;99.90;;;;;;4989459;28;20842;-80
2022/09/17 07:51:32;;;;;;;0.00;0.00;;;13.50;99.90;;;;;;4997742;28;20568;-81
2022/09/17 07:54:01;;;;;;;0.00;0.00;;;13.40;99.90;;;;;;4989623;28;20893;-78
2022/09/17 07:56:30;;;;;;;0.00;0.00;;;13.40;99.90;;;;;;4992423;28;20459;-78
2022/09/17 07:58:58;;;;;;;0.00;0.00;;;13.40;99.90;;;;;;4996642;28;20459;-73
2022/09/17 08:01:26;;;;;;;0.00;0.00;;;13.40;99.90;;;;;;4990630;28;20850;-77
2022/09/17 08:03:54;;;;;;;0.00;0.00;;;13.30;99.90;;;;;;4979952;28;20475;-76
2022/09/17 08:06:26;;;;;;;0.00;0.00;;;13.20;99.90;;;;;;4975822;28;20503;-75
2022/09/17 08:08:55;;;;;;;0.00;0.00;;;13.20;99.90;;;;;;4992586;28;20462;-77
2022/09/17 08:11:25;;;;;;;0.00;0.00;;;13.10;99.90;;;;;;4985042;28;20454;-77
2022/09/17 08:14:15;;;;;;;0.00;0.00;;;13.10;99.90;;;;;;4982226;28;20471;-77
2022/09/17 08:16:46;;;;;;;0.00;0.00;;;13.10;99.90;;;;;;4988684;28;20474;-77
2022/09/17 08:19:19;;;;;;;0.00;0.00;;;13.20;99.90;;;;;;4986625;28;20482;-76
2022/09/17 08:21:49;;;;;;;0.00;0.00;;;13.20;99.90;;;;;;4979356;28;20467;-76
2022/09/17 08:24:19;;;;;;;0.00;0.00;;;13.30;99.90;;;;;;4983497;28;20461;-77
2022/09/17 08:27:00;;;;;;;0.00;0.00;;;13.30;99.90;;;;;;4984013;28;21034;-77
2022/09/17 08:29:32;;;;;;;0.00;0.00;;;13.30;99.90;;;;;;4979832;28;20467;-75
2022/09/17 08:32:02;;;;;;;0.00;0.00;;;13.30;99.90;;;;;;4974278;28;20967;-76
2022/09/17 08:34:30;;;;;;;0.00;0.00;;;13.40;99.90;;;;;;4987359;28;20451;-76
2022/09/17 08:36:58;;;;;;;0.00;0.00;;;13.50;99.90;;;;;;4993954;28;20850;-75
2022/09/17 08:39:26;;;;;;;0.00;0.00;;;13.40;99.90;;;;;;4981222;28;20527;-77
2022/09/17 08:42:05;;;;;;;0.00;0.00;;;13.50;99.90;;;;;;4974674;28;20448;-77
2022/09/17 08:44:41;;;;;;;0.00;0.00;;;13.60;99.90;;;;;;4975197;28;20440;-76
2022/09/17 08:47:17;;;;;;;0.00;0.00;;;13.60;99.90;;;;;;4975056;28;20455;-76
2022/09/17 08:49:50;;;;;;;0.00;0.00;;;13.80;99.90;;;;;;4974972;28;20459;-76
2022/09/17 08:52:56;;;;;;;0.00;0.00;;;13.90;99.90;;;;;;4975424;28;20452;-79
2022/09/17 08:55:58;;;;;;;0.00;0.00;;;14.20;99.90;;;;;;4937830;28;20503;-77
2022/09/17 08:58:40;;;;;;;0.00;0.00;;;14.30;99.90;;;;;;4980720;28;20482;-79
2022/09/17 09:01:37;;;;;;;0.00;0.00;;;14.30;99.90;;;;;;4984896;28;20490;-76
2022/09/17 09:04:33;;;;;;;0.00;0.00;;;14.30;99.90;;;;;;4982149;28;20880;-78
2022/09/17 09:07:06;;;;;;;0.00;0.00;;;14.40;99.90;;;;;;4983506;28;20521;-77
2022/09/17 09:09:37;;;;;;;0.00;0.00;;;14.50;99.90;;;;;;4980256;28;20531;-74
2022/09/17 09:12:12;;;;;;;0.00;0.00;;;14.50;99.90;;;;;;4979436;28;20452;-76
2022/09/17 09:14:48;;;;;;;0.00;0.00;;;14.60;99.90;;;;;;4979259;28;20454;-75
2022/09/17 09:17:21;;;;;;;0.00;0.00;;;14.80;99.90;;;;;;4982397;28;20448;-76
2022/09/17 09:19:51;;;;;;;0.00;0.00;;;15.10;99.90;;;;;;4981342;28;20489;-78
2022/09/17 09:22:40;;;;;;;0.00;0.00;;;15.20;99.90;;;;;;4985381;28;20483;-76
2022/09/17 09:25:19;;;;;;;0.00;0.00;;;15.20;99.90;;;;;;4983189;28;20458;-78
2022/09/17 09:27:56;;;;;;;0.00;0.00;;;15.00;99.90;;;;;;4984542;28;20486;-77
2022/09/17 09:30:25;;;;;;;0.00;0.00;;;15.00;99.90;;;;;;4994124;28;20533;-77
2022/09/17 09:33:00;;;;;;;0.00;0.00;;;15.00;99.90;;;;;;4979956;28;20502;-77
2022/09/17 09:35:30;;;;;;;0.00;0.00;;;14.90;99.90;;;;;;4989414;28;20462;-77
2022/09/17 09:38:04;;;;;;;0.00;0.00;;;14.80;99.90;;;;;;4978985;28;20452;-77
2022/09/17 09:40:37;;;;;;;0.00;0.00;;;14.80;99.90;;;;;;4998088;28;20905;-77
2022/09/17 09:43:15;;;;;;;0.00;0.00;;;14.90;99.90;;;;;;4978708;28;20451;-77
2022/09/17 09:46:05;;;;;;;0.00;0.00;;;15.00;99.90;;;;;;4981401;28;20454;-78
2022/09/17 09:48:44;;;;;;;0.00;0.00;;;15.20;99.90;;;;;;4992917;28;20463;-78
2022/09/17 09:51:27;;;;;;;0.00;0.00;;;15.20;99.90;;;;;;4983475;28;20455;-78
2022/09/17 09:54:12;;;;;;;0.00;0.00;;;15.10;99.90;;;;;;4981008;28;20876;-78
2022/09/17 09:56:55;;;;;;;0.00;0.00;;;15.10;99.90;;;;;;4984385;28;20529;-77
2022/09/17 09:59:23;;;;;;;0.00;0.00;;;15.20;99.90;;;;;;4994216;28;20834;-78
2022/09/17 10:01:51;;;;;;;0.00;0.00;;;15.20;99.90;;;;;;4993479;28;20479;-75
2022/09/17 10:04:24;;;;;;;0.00;0.00;;;15.10;99.90;;;;;;4982615;28;20497;-75
2022/09/17 10:06:54;;;;;;;0.00;0.00;;;15.10;99.90;;;;;;4986250;28;20458;-74
2022/09/17 10:09:22;;;;;;;0.00;0.00;;;15.00;99.90;;;;;;4990211;28;20474;-73
2022/09/17 10:12:02;;;;;;;0.00;0.00;;;14.90;99.90;;;;;;4980890;28;20858;-74
2022/09/17 10:14:31;;;;;;;0.00;0.00;;;14.80;99.90;;;;;;4981652;28;20517;-74
2022/09/17 10:17:18;;;;;;;0.00;0.00;;;14.80;99.90;;;;;;4984011;28;20530;-74
2022/09/17 10:20:04;;;;;;;0.00;0.00;;;14.80;99.90;;;;;;4981956;28;20534;-74
2022/09/17 10:22:33;;;;;;;0.00;0.00;;;14.90;99.90;;;;;;4986785;28;20486;-74
2022/09/17 10:25:03;;;;;;;0.00;0.00;;;15.00;99.90;;;;;;4976711;28;20451;-72
2022/09/17 10:27:32;;;;;;;0.00;0.00;;;15.00;99.90;;;;;;4983729;28;20438;-75
2022/09/17 10:30:13;;;;;;;0.00;0.00;;;15.10;99.90;;;;;;4984977;28;20475;-74
2022/09/17 10:32:41;;;;;;;0.00;0.00;;;15.00;99.90;;;;;;4982920;28;20446;-73
2022/09/17 10:38:02;;;;;;;0.00;0.00;;;15.00;99.90;;;;;;5030438;27;20552;-72
2022/09/17 10:40:32;;;;;;;0.00;0.00;;;14.70;99.90;;;;;;5031008;28;20491;-72
2022/09/17 10:43:23;;;;;;;0.00;0.00;;;14.60;99.90;;;;;;5027124;28;20797;-72
2022/09/17 10:45:58;;;;;;;0.00;0.00;;;14.70;99.90;;;;;;5037849;28;20452;-74
2022/09/17 10:48:30;;;;;;;0.00;0.00;;;14.80;99.90;;;;;;5037334;28;20445;-76
2022/09/17 10:50:58;;;;;;;0.00;0.00;;;14.70;99.90;;;;;;5039029;28;20509;-74
2022/09/17 10:53:28;;;;;;;0.00;0.00;;;14.70;99.90;;;;;;5033252;28;20441;-73
2022/09/17 10:56:04;;;;;;;0.00;0.00;;;14.80;99.90;;;;;;5027091;28;20819;-73
2022/09/17 10:59:03;;;;;;;0.00;0.00;;;14.80;99.90;;;;;;5127159;22;20490;-84
2022/09/17 11:01:44;;;;;;;0.00;0.00;;;14.90;99.90;;;;;;5049028;28;20440;-84
2022/09/17 11:04:24;;;;;;;0.00;0.00;;;14.90;99.90;;;;;;5042454;28;20468;-84
2022/09/17 11:07:32;;;;;;;0.00;0.00;;;14.90;99.90;;;;;;5038384;28;20516;-84
2022/09/17 11:10:12;;;;;;;0.00;0.00;;;14.90;99.90;;;;;;5003950;28;20458;-86
2022/09/17 11:12:59;;;;;;;0.00;0.00;;;14.90;99.90;;;;;;5055634;28;20442;-87
2022/09/17 11:15:40;;;;;;;0.00;0.00;;;15.10;99.90;;;;;;5035479;28;20453;-85
2022/09/17 11:18:37;;;;;;;0.00;0.00;;;15.10;99.90;;;;;;5040595;28;20484;-87
2022/09/17 11:21:34;;;;;;;0.00;0.00;;;15.10;99.90;;;;;;5039022;28;20468;-86
2022/09/17 11:24:23;;;;;;;0.00;0.00;;;15.20;99.90;;;;;;5045879;28;20441;-85
2022/09/17 11:27:00;;;;;;;0.00;0.00;;;15.20;99.90;;;;;;5047791;28;20449;-84
2022/09/17 11:29:43;;;;;;;0.00;0.00;;;15.30;99.90;;;;;;5042836;28;20468;-84
2022/09/17 11:32:31;;;;;;;0.00;0.00;;;15.40;99.90;;;;;;5046310;28;20472;-84
2022/09/17 11:35:04;;;;;;;0.00;0.00;;;15.40;99.90;;;;;;5053234;28;20444;-85
2022/09/17 11:37:37;;;;;;;0.00;0.00;;;15.40;99.90;;;;;;5042355;28;20484;-85
2022/09/17 11:40:14;;;;;;;0.00;0.00;;;15.30;99.90;;;;;;5014259;28;20459;-84
2022/09/17 11:42:49;;;;;;;0.00;0.00;;;15.30;99.90;;;;;;5042427;28;20424;-85
2022/09/17 11:45:21;;;;;;;0.00;0.00;;;15.20;99.90;;;;;;5042224;28;20429;-84
2022/09/17 11:47:55;;;;;;;0.00;0.00;;;15.20;99.90;;;;;;5049479;28;20437;-86
2022/09/17 11:50:29;;;;;;;0.00;0.00;;;15.30;99.90;;;;;;5040935;28;20465;-85
2022/09/17 11:53:06;;;;;;;0.00;0.00;;;15.30;99.90;;;;;;5037111;28;20468;-86
2022/09/17 11:55:41;;;;;;;0.00;0.00;;;15.40;99.90;;;;;;5021470;28;20462;-85
2022/09/17 11:58:16;;;;;;;0.00;0.00;;;15.50;99.90;;;;;;5021638;28;20487;-85
2022/09/17 12:00:54;;;;;;;0.00;0.00;;;15.60;99.90;;;;;;5021240;28;20477;-86
2022/09/17 12:03:28;;;;;;;0.00;0.00;;;15.60;99.90;;;;;;5021704;28;20803;-85
2022/09/17 12:05:59;;;;;;;0.00;0.00;;;15.60;99.90;;;;;;5021360;28;20419;-87
2022/09/17 12:08:34;;;;;;;0.00;0.00;;;15.70;99.90;;;;;;5021515;28;20473;-86
2022/09/17 12:11:11;;;;;;;0.00;0.00;;;15.70;99.90;;;;;;5022490;28;20454;-87
2022/09/17 12:13:45;;;;;;;0.00;0.00;;;15.70;99.90;;;;;;5027364;28;20461;-86
2022/09/17 12:16:18;;;;;;;0.00;0.00;;;15.80;99.90;;;;;;5034608;28;20458;-86
2022/09/17 12:19:08;;;;;;;0.00;0.00;;;15.70;99.90;;;;;;5022986;28;20470;-86
2022/09/17 12:21:40;;;;;;;0.00;0.00;;;15.70;99.90;;;;;;5022134;28;20494;-86
2022/09/17 12:24:15;;;;;;;0.00;0.00;;;15.60;99.90;;;;;;5018657;28;20799;-86
2022/09/17 12:27:16;;;;;;;0.00;0.00;;;15.60;99.90;;;;;;5019933;28;20452;-86
2022/09/17 12:30:10;;;;;;;0.00;0.00;;;15.40;99.90;;;;;;4976828;28;20446;-85
2022/09/17 12:33:03;;;;;;;0.00;0.00;;;15.30;99.90;;;;;;5020070;28;20437;-86
2022/09/17 12:36:03;;;;;;;0.00;0.00;;;15.10;99.90;;;;;;5001145;28;20993;-85
2022/09/17 12:38:57;;;;;;;0.00;0.00;;;15.10;99.90;;;;;;5026033;28;20460;-85
2022/09/17 12:41:40;;;;;;;0.00;0.00;;;15.20;99.90;;;;;;5030307;28;21054;-87
2022/09/17 12:44:25;;;;;;;0.00;0.00;;;15.20;99.90;;;;;;5023434;28;20441;-89
2022/09/17 12:47:19;;;;;;;0.00;0.00;;;15.30;99.90;;;;;;5020053;28;20446;-88
2022/09/17 12:50:10;;;;;;;0.00;0.00;;;15.30;99.90;;;;;;5018254;28;20465;-87
2022/09/17 12:52:51;;;;;;;0.00;0.00;;;15.50;99.90;;;;;;5022839;28;20846;-86
2022/09/17 12:55:39;;;;;;;0.00;0.00;;;15.60;99.90;;;;;;5021502;28;20442;-87
2022/09/17 12:58:23;;;;;;;0.00;0.00;;;15.70;99.90;;;;;;5002469;28;20487;-87
2022/09/17 13:00:58;;;;;;;0.00;0.00;;;15.60;99.90;;;;;;5001935;28;20486;-86
2022/09/17 13:03:30;;;;;;;0.00;0.00;;;15.60;99.90;;;;;;5003148;28;20455;-86
2022/09/17 13:06:21;;;;;;;0.00;0.00;;;15.80;99.90;;;;;;5022893;28;20452;-87
2022/09/17 13:09:17;;;;;;;0.00;0.00;;;16.00;99.90;;;;;;5041896;28;20456;-87
2022/09/17 13:12:04;;;;;;;0.00;0.00;;;16.30;99.90;;;;;;5041964;28;20508;-87
2022/09/17 13:14:56;;;;;;;0.00;0.00;;;16.60;99.90;;;;;;5037674;28;20465;-87
2022/09/17 13:17:31;;;;;;;0.00;0.00;;;16.70;99.90;;;;;;4997945;28;20522;-85
2022/09/17 13:20:08;;;;;;;0.00;0.00;;;16.70;99.90;;;;;;5030762;28;20477;-85
2022/09/17 13:22:45;;;;;;;0.00;0.00;;;16.70;99.90;;;;;;5023123;28;20455;-87
2022/09/17 13:25:17;;;;;;;0.00;0.00;;;16.70;99.90;;;;;;5022125;28;20450;-85
2022/09/17 13:27:46;;;;;;;0.00;0.00;;;16.60;99.90;;;;;;5029930;28;20431;-86
2022/09/17 13:30:15;;;;;;;0.00;0.00;;;16.50;99.90;;;;;;5011478;28;20487;-87